createdAt,value
2017-05-22T00:00:47.831Z,0
2017-05-22T00:02:00.408Z,0
2017-05-22T00:03:13.298Z,0
2017-05-22T00:04:25.542Z,0
2017-05-22T00:05:37.821Z,0
2017-05-22T00:06:50.390Z,0
2017-05-22T00:08:02.698Z,0
2017-05-22T00:09:15.248Z,0
2017-05-22T00:10:26.909Z,0
2017-05-22T00:11:39.561Z,0
2017-05-22T00:12:52.165Z,0
2017-05-22T00:14:04.717Z,0
2017-05-22T00:15:17.291Z,0
2017-05-22T00:16:29.252Z,0
2017-05-22T00:17:41.821Z,0
2017-05-22T00:18:54.401Z,0
2017-05-22T00:20:06.663Z,0
2017-05-22T00:21:19.261Z,0
2017-05-22T00:22:31.863Z,0
2017-05-22T00:23:44.434Z,0
2017-05-22T00:24:57.006Z,0
2017-05-22T00:26:09.569Z,0
2017-05-22T00:27:21.865Z,0
2017-05-22T00:28:34.136Z,0
2017-05-22T00:29:46.690Z,0
2017-05-22T00:30:59.271Z,0
2017-05-22T00:32:11.856Z,0
2017-05-22T00:33:24.420Z,0
2017-05-22T00:34:36.738Z,0
2017-05-22T00:35:49.243Z,0
2017-05-22T00:37:01.809Z,0
2017-05-22T00:38:14.407Z,0
2017-05-22T00:39:26.956Z,0
2017-05-22T00:40:39.529Z,0
2017-05-22T00:41:51.491Z,0
2017-05-22T00:43:04.038Z,0
2017-05-22T00:44:16.308Z,0
2017-05-22T00:45:28.866Z,0
2017-05-22T00:46:41.706Z,0
2017-05-22T00:47:54.344Z,0
2017-05-22T00:49:06.951Z,0
2017-05-22T00:50:19.237Z,0
2017-05-22T00:51:31.584Z,0
2017-05-22T00:52:44.161Z,0
2017-05-22T00:53:56.732Z,0
2017-05-22T00:55:09.327Z,0
2017-05-22T00:56:21.609Z,0
2017-05-22T00:57:33.855Z,0
2017-05-22T00:58:46.401Z,0
2017-05-22T00:59:58.655Z,0
2017-05-22T01:01:11.208Z,0
2017-05-22T01:02:23.796Z,0
2017-05-22T01:03:36.317Z,0
2017-05-22T01:04:48.820Z,0
2017-05-22T01:06:01.108Z,0
2017-05-22T01:07:13.405Z,0
2017-05-22T01:08:26.001Z,0
2017-05-22T01:09:38.290Z,0
2017-05-22T01:10:50.849Z,0
2017-05-22T01:12:03.420Z,0
2017-05-22T01:13:15.402Z,0
2017-05-22T01:14:27.956Z,0
2017-05-22T01:15:40.533Z,0
2017-05-22T01:16:53.122Z,0
2017-05-22T01:18:05.350Z,0
2017-05-22T01:19:18.246Z,0
2017-05-22T01:20:30.817Z,0
2017-05-22T01:21:43.362Z,0
2017-05-22T01:22:55.959Z,0
2017-05-22T01:24:08.532Z,0
2017-05-22T01:25:20.794Z,0
2017-05-22T01:26:33.057Z,0
2017-05-22T01:27:45.617Z,0
2017-05-22T01:28:58.157Z,0
2017-05-22T01:30:10.731Z,0
2017-05-22T01:31:22.973Z,0
2017-05-22T01:32:35.543Z,0
2017-05-22T01:33:48.115Z,0
2017-05-22T01:35:00.685Z,0
2017-05-22T01:36:13.288Z,0
2017-05-22T01:37:25.877Z,0
2017-05-22T01:38:37.830Z,0
2017-05-22T01:39:50.427Z,0
2017-05-22T01:41:03.316Z,0
2017-05-22T01:42:15.286Z,0
2017-05-22T01:43:27.831Z,0
2017-05-22T01:44:39.808Z,0
2017-05-22T01:45:52.351Z,0
2017-05-22T01:47:04.854Z,0
2017-05-22T01:48:17.143Z,0
2017-05-22T01:49:29.688Z,0
2017-05-22T01:50:41.942Z,0
2017-05-22T01:51:54.479Z,0
2017-05-22T01:53:07.088Z,0
2017-05-22T01:54:19.321Z,0
2017-05-22T01:55:31.273Z,0
2017-05-22T01:56:43.546Z,0
2017-05-22T01:57:56.121Z,0
2017-05-22T01:59:08.661Z,0
2017-05-22T02:00:21.251Z,0
2017-05-22T02:01:33.803Z,0
2017-05-22T02:02:46.376Z,0
2017-05-22T02:03:58.963Z,0
2017-05-22T02:05:10.897Z,0
2017-05-22T02:06:23.440Z,0
2017-05-22T02:07:35.983Z,0
2017-05-22T02:08:48.547Z,0
2017-05-22T02:10:01.092Z,0
2017-05-22T02:11:13.299Z,0
2017-05-22T02:12:25.816Z,0
2017-05-22T02:13:38.412Z,0
2017-05-22T02:14:50.976Z,0
2017-05-22T02:16:03.231Z,0
2017-05-22T02:17:15.535Z,0
2017-05-22T02:18:28.390Z,0
2017-05-22T02:19:40.611Z,0
2017-05-22T02:20:53.181Z,0
2017-05-22T02:22:05.449Z,0
2017-05-22T02:23:17.981Z,0
2017-05-22T02:24:30.519Z,0
2017-05-22T02:25:43.065Z,0
2017-05-22T02:26:55.360Z,0
2017-05-22T02:28:07.955Z,0
2017-05-22T02:29:20.509Z,0
2017-05-22T02:30:32.754Z,0
2017-05-22T02:31:45.287Z,0
2017-05-22T02:32:57.874Z,0
2017-05-22T02:34:10.468Z,0
2017-05-22T02:35:22.732Z,0
2017-05-22T02:36:35.259Z,0
2017-05-22T02:37:47.523Z,0
2017-05-22T02:39:00.076Z,0
2017-05-22T02:40:12.622Z,0
2017-05-22T02:41:25.186Z,0
2017-05-22T02:42:37.431Z,0
2017-05-22T02:43:49.984Z,0
2017-05-22T02:45:02.550Z,0
2017-05-22T02:46:15.105Z,0
2017-05-22T02:47:27.666Z,0
2017-05-22T02:48:40.212Z,0
2017-05-22T02:49:52.223Z,0
2017-05-22T02:51:04.755Z,0
2017-05-22T02:52:17.005Z,0
2017-05-22T02:53:29.270Z,5
2017-05-22T02:54:41.816Z,5
2017-05-22T02:55:54.362Z,5
2017-05-22T02:57:06.951Z,5
2017-05-22T02:58:19.553Z,5
2017-05-22T02:59:31.807Z,5
2017-05-22T03:00:44.347Z,5
2017-05-22T03:01:56.892Z,10
2017-05-22T03:03:09.455Z,10
2017-05-22T03:04:22.033Z,10
2017-05-22T03:05:34.288Z,10
2017-05-22T03:06:46.850Z,10
2017-05-22T03:07:59.654Z,10
2017-05-22T03:09:12.218Z,15
2017-05-22T03:10:24.780Z,15
2017-05-22T03:11:36.740Z,15
2017-05-22T03:12:49.339Z,15
2017-05-22T03:14:01.924Z,15
2017-05-22T03:15:14.503Z,15
2017-05-22T03:16:26.775Z,20
2017-05-22T03:17:39.045Z,20
2017-05-22T03:18:51.615Z,20
2017-05-22T03:20:04.162Z,20
2017-05-22T03:21:16.701Z,20
2017-05-22T03:22:28.953Z,25
2017-05-22T03:23:41.196Z,25
2017-05-22T03:24:53.766Z,25
2017-05-22T03:26:05.984Z,25
2017-05-22T03:27:17.937Z,25
2017-05-22T03:28:30.511Z,30
2017-05-22T03:29:43.416Z,30
2017-05-22T03:30:55.950Z,30
2017-05-22T03:32:08.549Z,35
2017-05-22T03:33:21.116Z,35
2017-05-22T03:34:33.682Z,35
2017-05-22T03:35:46.209Z,35
2017-05-22T03:36:58.774Z,40
2017-05-22T03:38:11.294Z,40
2017-05-22T03:39:23.546Z,40
2017-05-22T03:40:36.085Z,45
2017-05-22T03:41:48.616Z,45
2017-05-22T03:43:01.152Z,50
2017-05-22T03:44:13.405Z,50
2017-05-22T03:45:25.969Z,55
2017-05-22T03:46:38.546Z,55
2017-05-22T03:47:51.086Z,60
2017-05-22T03:49:03.661Z,60
2017-05-22T03:50:15.878Z,60
2017-05-22T03:51:28.482Z,65
2017-05-22T03:52:41.095Z,65
2017-05-22T03:53:53.598Z,70
2017-05-22T03:55:06.143Z,70
2017-05-22T03:56:18.756Z,75
2017-05-22T03:57:31.328Z,80
2017-05-22T03:58:43.874Z,80
2017-05-22T03:59:56.452Z,85
2017-05-22T04:01:08.973Z,90
2017-05-22T04:02:21.512Z,90
2017-05-22T04:03:33.736Z,95
2017-05-22T04:04:46.279Z,95
2017-05-22T04:05:58.848Z,100
2017-05-22T04:07:11.703Z,100
2017-05-22T04:08:24.266Z,100
2017-05-22T04:09:36.580Z,105
2017-05-22T04:10:49.116Z,105
2017-05-22T04:12:01.697Z,110
2017-05-22T04:13:14.307Z,115
2017-05-22T04:14:26.847Z,115
2017-05-22T04:15:39.069Z,120
2017-05-22T04:16:51.345Z,125
2017-05-22T04:18:03.965Z,130
2017-05-22T04:19:16.534Z,130
2017-05-22T04:20:29.051Z,135
2017-05-22T04:21:41.322Z,140
2017-05-22T04:22:53.842Z,140
2017-05-22T04:24:06.387Z,145
2017-05-22T04:25:18.341Z,150
2017-05-22T04:26:30.628Z,150
2017-05-22T04:27:42.869Z,155
2017-05-22T04:28:54.822Z,160
2017-05-22T04:30:07.377Z,165
2017-05-22T04:31:19.645Z,170
2017-05-22T04:32:32.285Z,175
2017-05-22T04:33:44.930Z,180
2017-05-22T04:34:57.493Z,185
2017-05-22T04:36:10.029Z,190
2017-05-22T04:37:22.570Z,200
2017-05-22T04:38:34.519Z,200
2017-05-22T04:39:47.089Z,205
2017-05-22T04:40:59.648Z,205
2017-05-22T04:42:11.877Z,210
2017-05-22T04:43:24.448Z,215
2017-05-22T04:44:36.719Z,220
2017-05-22T04:45:49.522Z,225
2017-05-22T04:47:02.067Z,235
2017-05-22T04:48:14.057Z,245
2017-05-22T04:49:26.309Z,250
2017-05-22T04:50:38.875Z,255
2017-05-22T04:51:51.444Z,255
2017-05-22T04:53:04.001Z,260
2017-05-22T04:54:16.237Z,265
2017-05-22T04:55:28.757Z,265
2017-05-22T04:56:41.003Z,270
2017-05-22T04:57:53.533Z,275
2017-05-22T04:59:06.095Z,280
2017-05-22T05:00:18.658Z,280
2017-05-22T05:01:31.187Z,285
2017-05-22T05:02:43.408Z,290
2017-05-22T05:03:55.935Z,290
2017-05-22T05:05:08.263Z,295
2017-05-22T05:06:20.527Z,300
2017-05-22T05:07:32.823Z,300
2017-05-22T05:08:45.112Z,305
2017-05-22T05:09:57.678Z,310
2017-05-22T05:11:10.209Z,315
2017-05-22T05:12:22.756Z,320
2017-05-22T05:13:35.021Z,330
2017-05-22T05:14:47.274Z,335
2017-05-22T05:15:59.844Z,330
2017-05-22T05:17:12.127Z,335
2017-05-22T05:18:24.937Z,335
2017-05-22T05:19:37.206Z,335
2017-05-22T05:20:49.471Z,335
2017-05-22T05:22:01.123Z,335
2017-05-22T05:23:13.720Z,330
2017-05-22T05:24:26.294Z,335
2017-05-22T05:25:38.556Z,340
2017-05-22T05:26:51.126Z,335
2017-05-22T05:28:03.703Z,345
2017-05-22T05:29:15.986Z,340
2017-05-22T05:30:28.538Z,350
2017-05-22T05:31:41.116Z,350
2017-05-22T05:32:53.437Z,350
2017-05-22T05:34:06.004Z,355
2017-05-22T05:35:18.573Z,360
2017-05-22T05:36:31.126Z,360
2017-05-22T05:37:43.646Z,355
2017-05-22T05:38:56.241Z,355
2017-05-22T05:40:09.123Z,355
2017-05-22T05:41:21.383Z,360
2017-05-22T05:42:34.005Z,350
2017-05-22T05:43:46.543Z,345
2017-05-22T05:44:59.040Z,330
2017-05-22T05:46:11.611Z,325
2017-05-22T05:47:24.163Z,330
2017-05-22T05:48:36.752Z,330
2017-05-22T05:49:49.356Z,320
2017-05-22T05:51:01.925Z,310
2017-05-22T05:52:13.980Z,300
2017-05-22T05:53:26.268Z,285
2017-05-22T05:54:38.874Z,280
2017-05-22T05:55:51.137Z,290
2017-05-22T05:57:03.707Z,295
2017-05-22T05:58:15.968Z,300
2017-05-22T05:59:28.572Z,300
2017-05-22T06:00:41.161Z,295
2017-05-22T06:01:53.665Z,305
2017-05-22T06:03:06.232Z,315
2017-05-22T06:04:18.818Z,325
2017-05-22T06:05:31.426Z,330
2017-05-22T06:06:44.017Z,350
2017-05-22T06:07:56.543Z,350
2017-05-22T06:09:08.808Z,355
2017-05-22T06:10:21.328Z,355
2017-05-22T06:11:33.850Z,365
2017-05-22T06:12:46.125Z,340
2017-05-22T06:13:58.672Z,340
2017-05-22T06:15:11.268Z,320
2017-05-22T06:16:23.864Z,375
2017-05-22T06:17:36.761Z,415
2017-05-22T06:18:49.382Z,490
2017-05-22T06:20:01.951Z,510
2017-05-22T06:21:14.523Z,510
2017-05-22T06:22:26.788Z,700
2017-05-22T06:23:39.381Z,815
2017-05-22T06:24:51.360Z,645
2017-05-22T06:26:03.977Z,615
2017-05-22T06:27:16.277Z,810
2017-05-22T06:28:28.542Z,660
2017-05-22T06:29:41.074Z,585
2017-05-22T06:30:53.642Z,555
2017-05-22T06:32:05.915Z,780
2017-05-22T06:33:18.493Z,1040
2017-05-22T06:34:31.052Z,1115
2017-05-22T06:35:43.271Z,930
2017-05-22T06:36:55.813Z,1075
2017-05-22T06:38:08.363Z,1155
2017-05-22T06:39:20.941Z,1085
2017-05-22T06:40:33.526Z,1145
2017-05-22T06:41:45.846Z,1190
2017-05-22T06:42:58.425Z,1145
2017-05-22T06:44:11.045Z,1140
2017-05-22T06:45:23.616Z,1220
2017-05-22T06:46:36.137Z,1255
2017-05-22T06:47:48.083Z,1310
2017-05-22T06:49:00.704Z,1240
2017-05-22T06:50:13.268Z,1275
2017-05-22T06:51:25.514Z,1320
2017-05-22T06:52:38.084Z,1185
2017-05-22T06:53:50.056Z,1230
2017-05-22T06:55:01.677Z,1305
2017-05-22T06:56:13.949Z,1330
2017-05-22T06:57:26.217Z,1350
2017-05-22T06:58:38.514Z,1340
2017-05-22T06:59:51.060Z,1400
2017-05-22T07:01:03.632Z,1330
2017-05-22T07:02:15.890Z,1375
2017-05-22T07:03:28.154Z,1395
2017-05-22T07:04:40.722Z,1455
2017-05-22T07:05:53.246Z,1560
2017-05-22T07:07:05.468Z,1490
2017-05-22T07:08:18.114Z,1405
2017-05-22T07:09:30.710Z,1330
2017-05-22T07:10:42.949Z,1370
2017-05-22T07:11:55.537Z,1485
2017-05-22T07:13:08.122Z,1500
2017-05-22T07:14:20.737Z,1555
2017-05-22T07:15:33.306Z,1540
2017-05-22T07:16:45.585Z,1505
2017-05-22T07:17:58.451Z,1570
2017-05-22T07:19:11.045Z,1610
2017-05-22T07:20:23.274Z,1580
2017-05-22T07:21:35.866Z,1620
2017-05-22T07:22:48.690Z,1640
2017-05-22T07:24:01.355Z,1630
2017-05-22T07:25:13.300Z,1675
2017-05-22T07:26:25.822Z,1640
2017-05-22T07:27:38.392Z,1650
2017-05-22T07:28:50.639Z,1690
2017-05-22T07:30:02.883Z,1810
2017-05-22T07:31:14.846Z,1805
2017-05-22T07:32:27.100Z,1635
2017-05-22T07:33:39.629Z,1585
2017-05-22T07:34:52.211Z,1645
2017-05-22T07:36:04.794Z,1730
2017-05-22T07:37:17.068Z,1760
2017-05-22T07:38:29.614Z,1835
2017-05-22T07:39:42.207Z,1895
2017-05-22T07:40:54.804Z,1895
2017-05-22T07:42:07.067Z,1865
2017-05-22T07:43:19.345Z,1850
2017-05-22T07:44:31.634Z,1900
2017-05-22T07:45:43.581Z,1520
2017-05-22T07:46:56.128Z,1325
2017-05-22T07:48:08.715Z,1660
2017-05-22T07:49:21.374Z,1985
2017-05-22T07:50:33.970Z,2045
2017-05-22T07:51:46.279Z,2120
2017-05-22T07:52:58.587Z,2085
2017-05-22T07:54:11.127Z,2070
2017-05-22T07:55:23.699Z,2050
2017-05-22T07:56:36.293Z,2015
2017-05-22T07:57:48.871Z,1985
2017-05-22T07:59:00.835Z,2020
2017-05-22T08:00:13.112Z,2175
2017-05-22T08:01:25.677Z,1920
2017-05-22T08:02:37.997Z,1945
2017-05-22T08:03:50.544Z,2105
2017-05-22T08:05:03.115Z,2125
2017-05-22T08:06:15.687Z,2255
2017-05-22T08:07:28.235Z,2230
2017-05-22T08:08:40.804Z,2270
2017-05-22T08:09:53.351Z,2280
2017-05-22T08:11:05.874Z,2175
2017-05-22T08:12:18.422Z,2240
2017-05-22T08:13:30.961Z,2300
2017-05-22T08:14:43.563Z,2320
2017-05-22T08:15:56.178Z,2325
2017-05-22T08:17:08.750Z,2510
2017-05-22T08:18:21.051Z,2280
2017-05-22T08:19:33.341Z,2350
2017-05-22T08:20:45.587Z,2330
2017-05-22T08:21:58.150Z,2440
2017-05-22T08:23:10.441Z,2590
2017-05-22T08:24:23.024Z,2505
2017-05-22T08:25:35.627Z,2315
2017-05-22T08:26:48.192Z,2225
2017-05-22T08:28:00.480Z,2595
2017-05-22T08:29:13.083Z,2400
2017-05-22T08:30:25.654Z,2090
2017-05-22T08:31:38.230Z,1890
2017-05-22T08:32:50.237Z,1695
2017-05-22T08:34:02.517Z,1440
2017-05-22T08:35:14.494Z,1455
2017-05-22T08:36:27.059Z,1310
2017-05-22T08:37:38.729Z,1170
2017-05-22T08:38:51.050Z,1100
2017-05-22T08:40:03.597Z,945
2017-05-22T08:41:15.910Z,935
2017-05-22T08:42:28.495Z,855
2017-05-22T08:43:41.066Z,785
2017-05-22T08:44:53.057Z,730
2017-05-22T08:46:05.657Z,695
2017-05-22T08:47:17.955Z,695
2017-05-22T08:48:29.899Z,710
2017-05-22T08:49:42.521Z,695
2017-05-22T08:50:55.116Z,690
2017-05-22T08:52:07.121Z,655
2017-05-22T08:53:19.359Z,710
2017-05-22T08:54:31.653Z,690
2017-05-22T08:55:43.296Z,700
2017-05-22T08:56:55.849Z,710
2017-05-22T08:58:08.460Z,735
2017-05-22T08:59:21.013Z,790
2017-05-22T09:00:33.588Z,820
2017-05-22T09:01:46.180Z,590
2017-05-22T09:02:58.800Z,545
2017-05-22T09:04:11.415Z,575
2017-05-22T09:05:23.692Z,600
2017-05-22T09:06:36.281Z,895
2017-05-22T09:07:48.533Z,805
2017-05-22T09:09:00.775Z,850
2017-05-22T09:10:13.045Z,735
2017-05-22T09:11:25.571Z,715
2017-05-22T09:12:38.235Z,970
2017-05-22T09:13:50.538Z,950
2017-05-22T09:15:02.509Z,925
2017-05-22T09:16:14.799Z,755
2017-05-22T09:17:27.301Z,775
2017-05-22T09:18:39.615Z,785
2017-05-22T09:19:51.936Z,875
2017-05-22T09:21:04.208Z,1025
2017-05-22T09:22:16.753Z,1005
2017-05-22T09:23:29.325Z,985
2017-05-22T09:24:41.853Z,1015
2017-05-22T09:25:54.417Z,995
2017-05-22T09:27:06.968Z,965
2017-05-22T09:28:18.939Z,1025
2017-05-22T09:29:31.179Z,895
2017-05-22T09:30:43.731Z,980
2017-05-22T09:31:56.021Z,1320
2017-05-22T09:33:08.567Z,1465
2017-05-22T09:34:20.823Z,1515
2017-05-22T09:35:33.383Z,1540
2017-05-22T09:36:45.960Z,1640
2017-05-22T09:37:58.275Z,2225
2017-05-22T09:39:10.849Z,2425
2017-05-22T09:40:23.442Z,2540
2017-05-22T09:41:36.013Z,2555
2017-05-22T09:42:48.559Z,2835
2017-05-22T09:44:01.111Z,2970
2017-05-22T09:45:13.708Z,2515
2017-05-22T09:46:26.328Z,1840
2017-05-22T09:47:38.941Z,3835
2017-05-22T09:48:51.489Z,4225
2017-05-22T09:50:04.035Z,4130
2017-05-22T09:51:16.286Z,4170
2017-05-22T09:52:28.900Z,3870
2017-05-22T09:53:41.528Z,3760
2017-05-22T09:54:54.118Z,1475
2017-05-22T09:56:06.062Z,835
2017-05-22T09:57:18.360Z,2530
2017-05-22T09:58:30.955Z,2160
2017-05-22T09:59:43.476Z,4225
2017-05-22T10:00:55.729Z,4255
2017-05-22T10:02:08.045Z,1095
2017-05-22T10:03:20.338Z,840
2017-05-22T10:04:32.314Z,745
2017-05-22T10:05:44.605Z,895
2017-05-22T10:06:57.177Z,970
2017-05-22T10:08:09.797Z,950
2017-05-22T10:09:21.803Z,1940
2017-05-22T10:10:34.106Z,2275
2017-05-22T10:11:46.461Z,2735
2017-05-22T10:12:59.038Z,4100
2017-05-22T10:14:11.634Z,4220
2017-05-22T10:15:24.249Z,1015
2017-05-22T10:16:36.519Z,950
2017-05-22T10:17:48.490Z,1005
2017-05-22T10:19:01.092Z,970
2017-05-22T10:20:13.036Z,955
2017-05-22T10:21:25.253Z,940
2017-05-22T10:22:37.806Z,1000
2017-05-22T10:23:50.395Z,1200
2017-05-22T10:25:02.973Z,3960
2017-05-22T10:26:15.265Z,1055
2017-05-22T10:27:27.864Z,1300
2017-05-22T10:28:40.484Z,1100
2017-05-22T10:29:52.774Z,2655
2017-05-22T10:31:05.021Z,1320
2017-05-22T10:32:17.591Z,985
2017-05-22T10:33:29.845Z,1095
2017-05-22T10:34:42.112Z,4315
2017-05-22T10:35:54.063Z,4380
2017-05-22T10:37:06.358Z,4675
2017-05-22T10:38:18.652Z,3735
2017-05-22T10:39:31.334Z,1500
2017-05-22T10:40:43.968Z,4080
2017-05-22T10:41:56.215Z,4480
2017-05-22T10:43:08.779Z,3855
2017-05-22T10:44:21.327Z,1385
2017-05-22T10:45:33.871Z,925
2017-05-22T10:46:46.417Z,810
2017-05-22T10:47:58.713Z,805
2017-05-22T10:49:10.709Z,820
2017-05-22T10:50:23.312Z,1735
2017-05-22T10:51:35.925Z,4315
2017-05-22T10:52:48.504Z,3625
2017-05-22T10:54:00.791Z,4170
2017-05-22T10:55:13.095Z,3955
2017-05-22T10:56:25.059Z,3870
2017-05-22T10:57:37.362Z,3875
2017-05-22T10:58:49.932Z,3785
2017-05-22T11:00:02.554Z,3920
2017-05-22T11:01:15.168Z,3855
2017-05-22T11:02:27.419Z,3845
2017-05-22T11:03:39.660Z,3885
2017-05-22T11:04:52.239Z,3500
2017-05-22T11:06:04.784Z,3490
2017-05-22T11:07:17.354Z,3515
2017-05-22T11:08:29.966Z,3360
2017-05-22T11:09:42.542Z,3955
2017-05-22T11:10:55.085Z,3595
2017-05-22T11:12:07.038Z,3340
2017-05-22T11:13:19.280Z,3310
2017-05-22T11:14:31.221Z,3365
2017-05-22T11:15:43.226Z,2925
2017-05-22T11:16:55.523Z,2680
2017-05-22T11:18:07.511Z,940
2017-05-22T11:19:19.488Z,870
2017-05-22T11:20:32.076Z,1840
2017-05-22T11:21:43.723Z,2980
2017-05-22T11:22:56.251Z,2675
2017-05-22T11:24:08.840Z,2460
2017-05-22T11:25:21.112Z,2250
2017-05-22T11:26:33.726Z,2380
2017-05-22T11:27:45.688Z,1365
2017-05-22T11:28:57.724Z,2855
2017-05-22T11:30:10.295Z,2445
2017-05-22T11:31:22.866Z,2685
2017-05-22T11:32:35.443Z,2375
2017-05-22T11:33:47.712Z,2415
2017-05-22T11:35:00.028Z,2510
2017-05-22T11:36:12.605Z,2545
2017-05-22T11:37:25.196Z,2405
2017-05-22T11:38:37.483Z,2350
2017-05-22T11:39:49.812Z,2295
2017-05-22T11:41:02.058Z,2110
2017-05-22T11:42:14.010Z,2115
2017-05-22T11:43:26.609Z,2155
2017-05-22T11:44:38.649Z,1940
2017-05-22T11:45:50.642Z,1800
2017-05-22T11:47:03.213Z,1795
2017-05-22T11:48:15.815Z,2135
2017-05-22T11:49:28.415Z,2070
2017-05-22T11:50:40.975Z,1790
2017-05-22T11:51:53.277Z,2000
2017-05-22T11:53:05.259Z,2040
2017-05-22T11:54:17.814Z,1975
2017-05-22T11:55:30.107Z,2175
2017-05-22T11:56:42.711Z,3295
2017-05-22T11:57:55.307Z,4175
2017-05-22T11:59:07.298Z,4925
2017-05-22T12:00:19.673Z,6005
2017-05-22T12:01:32.288Z,6310
2017-05-22T12:02:44.288Z,5750
2017-05-22T12:03:56.559Z,5205
2017-05-22T12:05:09.162Z,5045
2017-05-22T12:06:21.098Z,4470
2017-05-22T12:07:33.425Z,4230
2017-05-22T12:08:45.701Z,4060
2017-05-22T12:09:58.011Z,4060
2017-05-22T12:11:10.534Z,3660
2017-05-22T12:12:22.833Z,3600
2017-05-22T12:13:35.423Z,3515
2017-05-22T12:14:47.994Z,2760
2017-05-22T12:16:00.566Z,1210
2017-05-22T12:17:13.161Z,1465
2017-05-22T12:18:25.431Z,5045
2017-05-22T12:19:37.705Z,5180
2017-05-22T12:20:50.249Z,5245
2017-05-22T12:22:02.225Z,4895
2017-05-22T12:23:14.818Z,4555
2017-05-22T12:24:27.086Z,4410
2017-05-22T12:25:39.663Z,4075
2017-05-22T12:26:51.952Z,3855
2017-05-22T12:28:04.224Z,3850
2017-05-22T12:29:16.194Z,4200
2017-05-22T12:30:28.815Z,4405
2017-05-22T12:31:41.086Z,4540
2017-05-22T12:32:53.683Z,4480
2017-05-22T12:34:06.333Z,4655
2017-05-22T12:35:18.616Z,4585
2017-05-22T12:36:31.200Z,4580
2017-05-22T12:37:43.784Z,4685
2017-05-22T12:38:56.138Z,4640
2017-05-22T12:40:08.400Z,4935
2017-05-22T12:41:20.382Z,4710
2017-05-22T12:42:32.975Z,4805
2017-05-22T12:43:45.563Z,4865
2017-05-22T12:44:57.542Z,5490
2017-05-22T12:46:10.113Z,5650
2017-05-22T12:47:22.689Z,5280
2017-05-22T12:48:35.322Z,1190
2017-05-22T12:49:47.931Z,1055
2017-05-22T12:50:59.627Z,885
2017-05-22T12:52:12.243Z,860
2017-05-22T12:53:24.819Z,895
2017-05-22T12:54:37.134Z,1265
2017-05-22T12:55:49.410Z,1205
2017-05-22T12:57:01.727Z,1780
2017-05-22T12:58:14.004Z,5535
2017-05-22T12:59:26.292Z,5600
2017-05-22T13:00:38.556Z,5535
2017-05-22T13:01:51.110Z,5520
2017-05-22T13:03:03.380Z,5515
2017-05-22T13:04:15.644Z,5325
2017-05-22T13:05:27.905Z,5095
2017-05-22T13:06:40.492Z,5165
2017-05-22T13:07:53.091Z,5130
2017-05-22T13:09:05.384Z,4510
2017-05-22T13:10:17.656Z,855
2017-05-22T13:11:30.183Z,735
2017-05-22T13:12:42.735Z,805
2017-05-22T13:13:55.325Z,1605
2017-05-22T13:15:07.915Z,1090
2017-05-22T13:16:20.493Z,4170
2017-05-22T13:17:33.138Z,4655
2017-05-22T13:18:45.733Z,4725
2017-05-22T13:19:57.700Z,5200
2017-05-22T13:21:10.219Z,5110
2017-05-22T13:22:21.896Z,5205
2017-05-22T13:23:34.542Z,5175
2017-05-22T13:24:47.206Z,5215
2017-05-22T13:25:59.851Z,4760
2017-05-22T13:27:12.498Z,4245
2017-05-22T13:28:24.473Z,4585
2017-05-22T13:29:37.071Z,4855
2017-05-22T13:30:49.684Z,4735
2017-05-22T13:32:01.657Z,4840
2017-05-22T13:33:14.208Z,4710
2017-05-22T13:34:26.762Z,4515
2017-05-22T13:35:39.411Z,4445
2017-05-22T13:36:51.740Z,4240
2017-05-22T13:38:04.018Z,4430
2017-05-22T13:39:16.633Z,4515
2017-05-22T13:40:28.935Z,4325
2017-05-22T13:41:41.206Z,4395
2017-05-22T13:42:53.520Z,4585
2017-05-22T13:44:06.141Z,4530
2017-05-22T13:45:18.668Z,4645
2017-05-22T13:46:31.239Z,4510
2017-05-22T13:47:43.835Z,4600
2017-05-22T13:48:56.450Z,4490
2017-05-22T13:50:08.454Z,4475
2017-05-22T13:51:21.072Z,4320
2017-05-22T13:52:33.705Z,4030
2017-05-22T13:53:45.711Z,855
2017-05-22T13:54:58.254Z,1845
2017-05-22T13:56:10.249Z,620
2017-05-22T13:57:22.545Z,645
2017-05-22T13:58:34.817Z,645
2017-05-22T13:59:47.362Z,610
2017-05-22T14:00:59.040Z,975
2017-05-22T14:02:11.281Z,1220
2017-05-22T14:03:23.908Z,1545
2017-05-22T14:04:36.205Z,3020
2017-05-22T14:05:48.474Z,2200
2017-05-22T14:07:00.439Z,2825
2017-05-22T14:08:13.085Z,3520
2017-05-22T14:09:25.337Z,2995
2017-05-22T14:10:37.907Z,2325
2017-05-22T14:11:50.522Z,3480
2017-05-22T14:13:02.842Z,3225
2017-05-22T14:14:15.116Z,3400
2017-05-22T14:15:27.711Z,3955
2017-05-22T14:16:40.287Z,3985
2017-05-22T14:17:52.859Z,3995
2017-05-22T14:19:04.854Z,3885
2017-05-22T14:20:17.143Z,3875
2017-05-22T14:21:29.698Z,3795
2017-05-22T14:22:42.292Z,3940
2017-05-22T14:23:54.582Z,3690
2017-05-22T14:25:06.852Z,3760
2017-05-22T14:26:19.381Z,3855
2017-05-22T14:27:31.646Z,3700
2017-05-22T14:28:43.947Z,3720
2017-05-22T14:29:56.536Z,3650
2017-05-22T14:31:08.808Z,3585
2017-05-22T14:32:21.094Z,3350
2017-05-22T14:33:33.375Z,3495
2017-05-22T14:34:45.951Z,3585
2017-05-22T14:35:58.266Z,475
2017-05-22T14:37:10.547Z,505
2017-05-22T14:38:23.160Z,465
2017-05-22T14:39:35.406Z,480
2017-05-22T14:40:47.676Z,440
2017-05-22T14:42:00.245Z,460
2017-05-22T14:43:12.496Z,435
2017-05-22T14:44:25.069Z,440
2017-05-22T14:45:37.676Z,450
2017-05-22T14:46:49.959Z,450
2017-05-22T14:48:01.651Z,450
2017-05-22T14:49:13.924Z,440
2017-05-22T14:50:26.173Z,450
2017-05-22T14:51:38.437Z,450
2017-05-22T14:52:50.983Z,440
2017-05-22T14:54:02.946Z,430
2017-05-22T14:55:15.225Z,500
2017-05-22T14:56:27.754Z,735
2017-05-22T14:57:40.323Z,545
2017-05-22T14:58:52.345Z,495
2017-05-22T15:00:04.626Z,450
2017-05-22T15:01:17.205Z,475
2017-05-22T15:02:29.751Z,520
2017-05-22T15:03:42.303Z,410
2017-05-22T15:04:54.324Z,390
2017-05-22T15:06:06.945Z,385
2017-05-22T15:07:19.535Z,410
2017-05-22T15:08:32.087Z,395
2017-05-22T15:09:44.683Z,375
2017-05-22T15:10:56.943Z,395
2017-05-22T15:12:08.594Z,375
2017-05-22T15:13:21.195Z,430
2017-05-22T15:14:33.826Z,705
2017-05-22T15:15:45.812Z,450
2017-05-22T15:16:58.434Z,355
2017-05-22T15:18:10.729Z,330
2017-05-22T15:19:22.971Z,445
2017-05-22T15:20:35.165Z,665
2017-05-22T15:21:47.416Z,1075
2017-05-22T15:22:59.393Z,1660
2017-05-22T15:24:11.695Z,965
2017-05-22T15:25:23.954Z,345
2017-05-22T15:26:36.475Z,345
2017-05-22T15:27:49.041Z,360
2017-05-22T15:29:01.286Z,420
2017-05-22T15:30:13.512Z,420
2017-05-22T15:31:25.840Z,425
2017-05-22T15:32:38.351Z,430
2017-05-22T15:33:50.873Z,420
2017-05-22T15:35:03.439Z,500
2017-05-22T15:36:15.386Z,685
2017-05-22T15:37:27.957Z,555
2017-05-22T15:38:40.228Z,510
2017-05-22T15:39:52.503Z,925
2017-05-22T15:41:04.725Z,1025
2017-05-22T15:42:16.690Z,900
2017-05-22T15:43:28.662Z,480
2017-05-22T15:44:41.208Z,480
2017-05-22T15:45:53.810Z,485
2017-05-22T15:47:06.382Z,510
2017-05-22T15:48:18.296Z,510
2017-05-22T15:49:30.865Z,495
2017-05-22T15:50:43.137Z,465
2017-05-22T15:51:55.713Z,470
2017-05-22T15:53:07.985Z,470
2017-05-22T15:54:20.553Z,480
2017-05-22T15:55:32.495Z,490
2017-05-22T15:56:44.467Z,485
2017-05-22T15:57:56.738Z,475
2017-05-22T15:59:09.310Z,465
2017-05-22T16:00:21.609Z,450
2017-05-22T16:01:34.157Z,435
2017-05-22T16:02:46.702Z,415
2017-05-22T16:03:59.017Z,390
2017-05-22T16:05:11.320Z,375
2017-05-22T16:06:23.891Z,370
2017-05-22T16:07:36.458Z,360
2017-05-22T16:08:49.033Z,345
2017-05-22T16:10:01.646Z,335
2017-05-22T16:11:14.199Z,330
2017-05-22T16:12:26.817Z,335
2017-05-22T16:13:39.036Z,345
2017-05-22T16:14:51.280Z,340
2017-05-22T16:16:03.245Z,345
2017-05-22T16:17:15.546Z,350
2017-05-22T16:18:27.797Z,350
2017-05-22T16:19:40.389Z,330
2017-05-22T16:20:52.937Z,300
2017-05-22T16:22:04.881Z,285
2017-05-22T16:23:17.477Z,275
2017-05-22T16:24:30.006Z,285
2017-05-22T16:25:42.603Z,295
2017-05-22T16:26:55.190Z,305
2017-05-22T16:28:07.413Z,295
2017-05-22T16:29:19.966Z,295
2017-05-22T16:30:32.552Z,295
2017-05-22T16:31:45.153Z,295
2017-05-22T16:32:57.699Z,295
2017-05-22T16:34:09.984Z,295
2017-05-22T16:35:22.511Z,290
2017-05-22T16:36:35.032Z,280
2017-05-22T16:37:47.002Z,280